Flight Briefing for CPX420

Departure Arrival
Norman Manley International Airport (MKJP)
Click to view FAA NOTAMS
Miami International Airport (KMIA)
Click to view FAA NOTAMS
Departure Time Arrival Time
N/A N/A
Aircraft Distance
B757-200SF 518nm
Departure METAR Arrival METAR
MKJP 261000Z 35005KT 9999 FEW022 26/18 Q1013 KMIA 260953Z 29003KT 10SM FEW020 21/17 A3000 RMK AO2 SLP160 T02060172
Suggested Route
UCA UA301 URSUS FLIPR6


View recent IFR Routes data
Notes



Charts and Procedures

Charts for MKJP
No chart available
Charts for KMIA
No chart available

Windy.com Weather Map